Time;durP1;ratioP1;P1;durP2;ratioP2;P2;SDS_P1;SDS_P2;PMS_P1;PMS_P2;Temp;Humidity;BMP_temperature;BMP_pressure;BME280_temperature;BME280_humidity;BME280_pressure;Samples;Min_cycle;Max_cycle;Signal;HPM_P1;HPM_P2
2022/03/02 00:01:42;;;;;;;24.37;15.40;;;1.40;99.90;;;;;;5051154;28;20467;-68
2022/03/02 00:04:08;;;;;;;15.00;13.10;;;1.50;99.90;;;;;;5051700;28;20892;-68
2022/03/02 00:06:33;;;;;;;17.60;14.40;;;1.50;99.90;;;;;;5051661;28;20658;-68
2022/03/02 00:08:59;;;;;;;16.47;13.53;;;1.40;99.90;;;;;;5051562;28;20247;-68
2022/03/02 00:11:27;;;;;;;17.13;13.20;;;1.50;99.90;;;;;;5051501;28;20208;-68
2022/03/02 00:13:53;;;;;;;16.97;14.47;;;1.50;99.90;;;;;;5051230;28;20201;-68
2022/03/02 00:16:19;;;;;;;21.93;13.60;;;1.40;99.90;;;;;;5051307;28;20772;-68
2022/03/02 00:18:44;;;;;;;18.27;13.23;;;1.30;99.90;;;;;;5051243;28;20440;-68
2022/03/02 00:21:10;;;;;;;22.47;15.70;;;1.30;99.90;;;;;;5051417;28;20227;-68
2022/03/02 00:23:36;;;;;;;27.70;20.40;;;1.20;99.90;;;;;;5051628;28;20189;-68
2022/03/02 00:26:02;;;;;;;18.73;14.50;;;1.30;99.90;;;;;;5050814;28;20486;-68
2022/03/02 00:28:27;;;;;;;18.87;14.23;;;1.40;99.90;;;;;;5051382;28;20188;-68
2022/03/02 00:30:53;;;;;;;15.53;13.80;;;1.50;99.90;;;;;;5051355;28;20188;-68
2022/03/02 00:33:19;;;;;;;16.90;12.90;;;1.60;99.90;;;;;;5051061;28;20292;-68
2022/03/02 00:35:45;;;;;;;18.17;14.43;;;1.60;99.90;;;;;;5050550;28;20197;-68
2022/03/02 00:38:11;;;;;;;23.10;14.83;;;1.60;99.90;;;;;;5050837;28;20177;-67
2022/03/02 00:40:40;;;;;;;20.50;15.43;;;1.60;99.90;;;;;;5051205;28;20424;-67
2022/03/02 00:43:07;;;;;;;24.20;14.90;;;1.70;99.90;;;;;;5050956;28;20933;-68
2022/03/02 00:45:32;;;;;;;18.00;15.27;;;1.80;99.90;;;;;;5050754;28;20459;-68
2022/03/02 00:47:59;;;;;;;21.93;14.77;;;1.90;99.90;;;;;;5050930;28;20948;-68
2022/03/02 00:50:26;;;;;;;21.30;14.80;;;1.90;99.90;;;;;;5050867;28;20178;-68
2022/03/02 00:52:51;;;;;;;20.07;15.20;;;1.90;99.90;;;;;;5051414;28;21027;-68
2022/03/02 00:55:17;;;;;;;20.80;13.90;;;1.90;99.90;;;;;;5050509;28;20463;-68
2022/03/02 00:57:42;;;;;;;19.70;13.93;;;1.90;99.90;;;;;;5050788;28;20174;-68
2022/03/02 01:00:09;;;;;;;18.13;14.03;;;2.00;99.90;;;;;;5050928;28;20212;-68
2022/03/02 01:02:35;;;;;;;19.63;15.90;;;2.00;99.90;;;;;;5051179;28;20205;-68
2022/03/02 01:05:01;;;;;;;22.00;14.93;;;2.00;99.90;;;;;;5050510;28;20495;-69
2022/03/02 01:07:26;;;;;;;18.57;14.47;;;1.80;99.90;;;;;;5051138;28;20212;-68
2022/03/02 01:09:52;;;;;;;20.53;14.20;;;1.80;99.90;;;;;;5053279;28;20177;-68
2022/03/02 01:12:17;;;;;;;22.10;15.63;;;1.70;99.90;;;;;;5054783;28;20221;-68
2022/03/02 01:14:43;;;;;;;20.37;16.10;;;1.70;99.90;;;;;;5054671;28;20197;-68
2022/03/02 01:17:09;;;;;;;18.90;14.80;;;1.70;99.90;;;;;;5054309;28;20185;-68
2022/03/02 01:19:36;;;;;;;21.33;14.63;;;1.70;99.90;;;;;;5055038;28;20177;-68
2022/03/02 01:22:01;;;;;;;18.43;13.80;;;1.60;99.90;;;;;;5054403;28;20188;-68
2022/03/02 01:24:27;;;;;;;19.40;13.80;;;1.50;99.90;;;;;;5054586;28;20455;-68
2022/03/02 01:26:53;;;;;;;17.53;14.17;;;1.40;99.90;;;;;;5054493;28;20446;-68
2022/03/02 01:29:18;;;;;;;17.50;13.70;;;1.40;99.90;;;;;;5054285;28;20174;-68
2022/03/02 01:31:44;;;;;;;17.73;13.33;;;1.30;99.90;;;;;;5054598;28;20701;-68
2022/03/02 01:34:09;;;;;;;21.43;13.93;;;1.40;99.90;;;;;;5054419;28;20675;-67
2022/03/02 01:36:35;;;;;;;19.60;12.93;;;1.40;99.90;;;;;;5053943;28;20177;-68
2022/03/02 01:39:00;;;;;;;27.40;15.80;;;1.30;99.90;;;;;;5054447;28;20180;-68
2022/03/02 01:41:26;;;;;;;22.20;13.60;;;1.40;99.90;;;;;;5054571;28;20617;-68
2022/03/02 01:43:54;;;;;;;18.47;12.67;;;1.40;99.90;;;;;;5054201;28;20200;-68
2022/03/02 01:46:21;;;;;;;18.13;13.50;;;1.30;99.90;;;;;;5053882;28;20447;-68
2022/03/02 01:48:48;;;;;;;20.00;13.37;;;1.30;99.90;;;;;;5040235;28;20471;-67
2022/03/02 01:51:14;;;;;;;20.00;14.30;;;1.30;99.90;;;;;;5054207;28;20432;-68
2022/03/02 01:53:40;;;;;;;21.40;14.60;;;1.30;99.90;;;;;;5053858;28;20833;-68
2022/03/02 01:56:07;;;;;;;18.03;13.43;;;1.30;99.90;;;;;;5050573;28;20427;-68
2022/03/02 01:58:33;;;;;;;17.10;11.83;;;1.20;99.90;;;;;;5053491;28;20432;-68
2022/03/02 02:00:59;;;;;;;20.13;13.23;;;1.20;99.90;;;;;;5053928;28;20432;-68
2022/03/02 02:03:25;;;;;;;20.10;15.33;;;1.20;99.90;;;;;;5053951;28;20440;-68
2022/03/02 02:05:52;;;;;;;21.40;13.53;;;1.20;99.90;;;;;;5053665;28;20436;-68
2022/03/02 02:08:17;;;;;;;18.80;12.57;;;1.20;99.90;;;;;;5053630;28;20436;-67
2022/03/02 02:10:43;;;;;;;16.10;11.87;;;1.20;99.90;;;;;;5053539;28;20439;-68
2022/03/02 02:13:09;;;;;;;15.87;13.50;;;1.20;99.90;;;;;;5053631;28;20259;-67
2022/03/02 02:15:35;;;;;;;17.20;12.13;;;1.30;99.90;;;;;;5053254;28;20208;-67
2022/03/02 02:18:01;;;;;;;16.23;12.67;;;1.10;99.90;;;;;;5053426;28;20424;-67
2022/03/02 02:20:26;;;;;;;16.90;12.87;;;1.10;99.90;;;;;;5053676;28;20256;-67
2022/03/02 02:22:52;;;;;;;17.43;12.80;;;1.10;99.90;;;;;;5053357;28;20471;-67
2022/03/02 02:25:19;;;;;;;15.17;12.97;;;1.00;99.90;;;;;;5052921;28;20617;-68
2022/03/02 02:27:46;;;;;;;19.40;13.10;;;1.00;99.90;;;;;;5053784;28;20852;-68
2022/03/02 02:30:14;;;;;;;16.80;12.63;;;1.00;99.90;;;;;;5035373;28;20438;-67
2022/03/02 02:32:40;;;;;;;14.50;11.83;;;1.00;99.90;;;;;;5053287;28;20471;-67
2022/03/02 02:35:08;;;;;;;15.77;12.20;;;1.00;99.90;;;;;;5052893;28;20581;-67
2022/03/02 02:37:35;;;;;;;17.10;13.80;;;1.00;99.90;;;;;;5053433;28;20435;-68
2022/03/02 02:40:07;;;;;;;17.30;14.00;;;1.00;99.90;;;;;;5053054;28;20431;-67
2022/03/02 02:42:34;;;;;;;16.23;13.00;;;1.00;99.90;;;;;;5053336;28;20470;-67
2022/03/02 02:44:59;;;;;;;17.73;12.50;;;1.00;99.90;;;;;;5052742;28;20455;-68
2022/03/02 02:47:25;;;;;;;16.20;13.70;;;0.90;99.90;;;;;;5053019;28;20451;-68
2022/03/02 02:49:50;;;;;;;14.80;11.83;;;0.90;99.90;;;;;;5053119;28;20186;-68
2022/03/02 02:52:16;;;;;;;16.63;12.70;;;0.90;99.90;;;;;;5053045;28;20339;-67
2022/03/02 02:54:43;;;;;;;16.60;12.60;;;0.90;99.90;;;;;;5035132;28;20197;-67
2022/03/02 02:57:08;;;;;;;18.73;12.07;;;0.80;99.90;;;;;;5052565;28;20193;-67
2022/03/02 02:59:34;;;;;;;16.40;12.10;;;0.80;99.90;;;;;;5053053;28;20513;-67
2022/03/02 03:02:00;;;;;;;15.40;12.87;;;0.90;99.90;;;;;;5053002;28;20312;-67
2022/03/02 03:04:25;;;;;;;18.33;13.70;;;0.90;99.90;;;;;;5052634;28;20770;-67
2022/03/02 03:06:51;;;;;;;22.47;13.97;;;0.80;99.90;;;;;;5052934;28;20202;-69
2022/03/02 03:09:16;;;;;;;17.97;12.37;;;0.70;99.90;;;;;;5052452;28;20178;-69
2022/03/02 03:11:42;;;;;;;20.40;13.73;;;0.60;99.90;;;;;;5052567;28;20177;-68
2022/03/02 03:14:12;;;;;;;17.73;13.03;;;0.60;99.90;;;;;;5052711;28;20213;-68
2022/03/02 03:16:39;;;;;;;18.93;12.17;;;0.50;99.90;;;;;;5052343;28;20794;-68
2022/03/02 03:19:05;;;;;;;16.10;11.60;;;0.50;99.90;;;;;;5052649;28;20439;-67
2022/03/02 03:21:31;;;;;;;13.90;10.57;;;0.60;99.90;;;;;;5034634;28;21024;-68
2022/03/02 03:23:56;;;;;;;15.93;12.37;;;0.60;99.90;;;;;;5052184;28;20543;-68
2022/03/02 03:26:22;;;;;;;15.13;11.83;;;0.70;99.90;;;;;;5052055;28;20185;-68
2022/03/02 03:28:48;;;;;;;18.13;12.30;;;0.70;99.90;;;;;;5052545;28;20186;-67
2022/03/02 03:31:14;;;;;;;19.27;12.53;;;0.70;99.90;;;;;;5051708;28;20632;-68
2022/03/02 03:33:39;;;;;;;15.83;12.23;;;0.60;99.90;;;;;;5052025;28;20201;-68
2022/03/02 03:36:05;;;;;;;24.87;13.50;;;0.60;99.90;;;;;;5052109;28;20192;-68
2022/03/02 03:38:31;;;;;;;16.20;12.20;;;0.50;99.90;;;;;;5034455;28;20180;-68
2022/03/02 03:40:56;;;;;;;17.20;12.23;;;0.40;99.90;;;;;;5052121;28;20949;-68
2022/03/02 03:43:22;;;;;;;17.40;13.03;;;0.40;99.90;;;;;;5052076;28;20201;-67
2022/03/02 03:45:49;;;;;;;15.43;12.43;;;0.40;99.90;;;;;;5051979;28;20205;-68
2022/03/02 03:48:15;;;;;;;16.93;12.50;;;0.40;99.90;;;;;;5035496;28;20181;-68
2022/03/02 03:50:40;;;;;;;17.10;11.87;;;0.40;99.90;;;;;;5052855;28;20514;-68
2022/03/02 03:53:06;;;;;;;15.43;12.00;;;0.40;99.90;;;;;;5052534;28;20451;-68
2022/03/02 03:55:32;;;;;;;16.90;12.43;;;0.40;99.90;;;;;;5051354;28;20204;-68
2022/03/02 03:57:57;;;;;;;17.77;12.43;;;0.40;99.90;;;;;;5051585;28;20841;-68
2022/03/02 04:00:23;;;;;;;18.80;12.53;;;0.30;99.90;;;;;;5051721;28;20170;-68
2022/03/02 04:02:49;;;;;;;16.77;12.97;;;0.20;99.90;;;;;;5051798;28;20239;-68
2022/03/02 04:05:15;;;;;;;19.33;12.73;;;0.20;99.90;;;;;;5050974;28;20201;-68
2022/03/02 04:07:41;;;;;;;19.93;13.50;;;0.20;99.90;;;;;;5051410;28;20260;-67
2022/03/02 04:10:08;;;;;;;17.50;11.80;;;0.30;99.90;;;;;;5051500;28;20726;-68
2022/03/02 04:12:34;;;;;;;16.33;12.40;;;0.20;99.90;;;;;;5051546;28;20201;-68
2022/03/02 04:15:00;;;;;;;13.87;12.07;;;0.10;99.90;;;;;;5051504;28;20533;-68
2022/03/02 04:17:25;;;;;;;16.60;12.47;;;0.10;99.90;;;;;;5051613;28;20922;-68
2022/03/02 04:19:51;;;;;;;18.53;12.90;;;0.10;99.90;;;;;;5051750;28;20489;-68
2022/03/02 04:22:16;;;;;;;15.00;12.97;;;0.20;99.90;;;;;;5051257;28;20176;-68
2022/03/02 04:24:42;;;;;;;14.73;13.00;;;0.20;99.90;;;;;;5051341;28;20695;-68
2022/03/02 04:27:08;;;;;;;17.63;12.90;;;0.10;99.90;;;;;;5051192;28;20178;-68
2022/03/02 04:29:34;;;;;;;17.07;12.37;;;0.10;99.90;;;;;;5051328;28;20471;-68
2022/03/02 04:32:01;;;;;;;14.67;11.27;;;0.10;99.90;;;;;;5051431;28;20440;-68
2022/03/02 04:34:26;;;;;;;16.17;11.60;;;0.10;99.90;;;;;;5051416;28;20921;-67
2022/03/02 04:36:53;;;;;;;16.77;11.17;;;0.10;99.90;;;;;;5054135;28;20539;-67
2022/03/02 04:39:19;;;;;;;16.80;10.93;;;0.10;99.90;;;;;;5051541;28;20169;-67
2022/03/02 04:41:44;;;;;;;16.67;11.80;;;0.20;99.90;;;;;;5051448;28;20433;-66
2022/03/02 04:44:10;;;;;;;14.20;10.83;;;0.20;99.90;;;;;;5050861;28;20450;-67
2022/03/02 04:46:36;;;;;;;16.30;12.90;;;0.30;99.90;;;;;;5051072;28;20653;-67
2022/03/02 04:49:10;;;;;;;15.03;11.73;;;0.30;99.90;;;;;;5051175;28;20182;-67
2022/03/02 04:51:40;;;;;;;15.07;11.63;;;0.10;99.90;;;;;;5049867;28;20234;-67
2022/03/02 04:54:06;;;;;;;14.37;11.80;;;0.00;99.90;;;;;;5051208;28;20554;-67
2022/03/02 04:56:32;;;;;;;20.90;12.27;;;0.00;99.90;;;;;;5050454;28;20826;-67
2022/03/02 04:58:58;;;;;;;18.03;11.57;;;0.10;99.90;;;;;;5051264;28;20439;-67
2022/03/02 05:01:23;;;;;;;12.20;10.50;;;0.10;99.90;;;;;;5051033;28;20477;-67
2022/03/02 05:03:49;;;;;;;13.17;10.60;;;0.00;99.90;;;;;;5051250;28;20256;-67
2022/03/02 05:06:14;;;;;;;19.77;13.03;;;0.00;99.90;;;;;;5050903;28;20756;-67
2022/03/02 05:08:40;;;;;;;18.87;13.17;;;0.00;99.90;;;;;;5051093;28;20678;-67
2022/03/02 05:11:05;;;;;;;17.40;12.73;;;0.00;99.90;;;;;;5050892;28;20182;-67
2022/03/02 05:13:31;;;;;;;15.43;11.40;;;0.00;99.90;;;;;;5051012;28;20224;-67
2022/03/02 05:15:56;;;;;;;15.50;11.10;;;0.00;99.90;;;;;;5050617;28;20173;-67
2022/03/02 05:18:22;;;;;;;14.40;11.57;;;0.00;99.90;;;;;;5050975;28;20173;-67
2022/03/02 05:20:47;;;;;;;16.27;12.00;;;0.00;99.90;;;;;;5051114;28;20185;-66
2022/03/02 05:23:13;;;;;;;19.33;13.20;;;0.10;99.90;;;;;;5050933;28;20197;-67
2022/03/02 05:25:39;;;;;;;19.63;13.33;;;0.10;99.90;;;;;;5050659;28;20197;-67
2022/03/02 05:28:04;;;;;;;17.73;12.70;;;0.10;99.90;;;;;;5051329;28;20174;-67
2022/03/02 05:30:30;;;;;;;15.23;11.70;;;0.20;99.90;;;;;;5050979;28;20185;-67
2022/03/02 05:32:55;;;;;;;15.90;12.67;;;0.10;99.90;;;;;;5050858;28;20655;-67
2022/03/02 05:35:21;;;;;;;20.90;11.80;;;0.10;99.90;;;;;;5050560;28;20209;-67
2022/03/02 05:37:47;;;;;;;18.67;12.43;;;0.10;99.90;;;;;;5050958;28;20212;-67
2022/03/02 05:40:15;;;;;;;21.33;13.30;;;0.10;99.90;;;;;;5050708;28;20178;-67
2022/03/02 05:42:41;;;;;;;19.00;13.43;;;0.20;99.90;;;;;;5050732;28;20720;-67
2022/03/02 05:45:07;;;;;;;20.60;13.50;;;0.20;99.90;;;;;;5050302;28;20455;-67
2022/03/02 05:47:33;;;;;;;16.67;12.70;;;0.20;99.90;;;;;;5050467;28;20185;-67
2022/03/02 05:49:59;;;;;;;20.17;14.10;;;0.20;99.90;;;;;;5050599;28;20812;-67
2022/03/02 05:52:24;;;;;;;17.93;12.53;;;0.20;99.90;;;;;;5050612;28;20960;-67
2022/03/02 05:54:50;;;;;;;18.87;12.20;;;0.20;99.90;;;;;;5051099;28;20204;-67
2022/03/02 05:57:15;;;;;;;18.20;12.73;;;0.20;99.90;;;;;;5053892;28;20208;-67
2022/03/02 05:59:41;;;;;;;20.67;14.07;;;0.20;99.90;;;;;;5053733;28;20237;-67
2022/03/02 06:02:06;;;;;;;16.63;14.00;;;0.30;99.90;;;;;;5048096;28;20611;-67
2022/03/02 06:04:32;;;;;;;14.70;12.33;;;0.30;99.90;;;;;;5054018;28;20718;-67
2022/03/02 06:06:57;;;;;;;22.47;15.50;;;0.40;99.90;;;;;;5053744;28;20185;-67
2022/03/02 06:09:23;;;;;;;24.63;12.63;;;0.40;99.90;;;;;;5054037;28;20173;-67
2022/03/02 06:11:49;;;;;;;15.53;12.77;;;0.40;99.90;;;;;;5052960;28;20189;-67
2022/03/02 06:14:15;;;;;;;16.40;12.67;;;0.50;99.90;;;;;;5053797;28;20741;-67
2022/03/02 06:16:41;;;;;;;19.33;12.47;;;0.50;99.90;;;;;;5053987;28;20431;-67
2022/03/02 06:19:07;;;;;;;17.37;12.73;;;0.60;99.90;;;;;;5052799;28;20181;-67
2022/03/02 06:21:32;;;;;;;21.73;13.37;;;0.60;99.90;;;;;;5053963;28;20439;-67
2022/03/02 06:23:58;;;;;;;15.90;12.50;;;0.70;99.90;;;;;;5053615;28;20197;-67
2022/03/02 06:26:25;;;;;;;19.20;14.77;;;0.80;99.90;;;;;;5051670;28;20182;-67
2022/03/02 06:28:51;;;;;;;43.60;20.97;;;0.90;99.90;;;;;;5053488;28;20524;-67
2022/03/02 06:31:18;;;;;;;59.67;33.17;;;0.80;99.90;;;;;;5053690;28;20481;-67
2022/03/02 06:33:44;;;;;;;44.00;26.87;;;0.80;99.90;;;;;;5053218;28;20468;-67
2022/03/02 06:36:10;;;;;;;29.43;18.40;;;0.70;99.90;;;;;;5053056;28;20442;-66
2022/03/02 06:38:35;;;;;;;28.30;18.10;;;0.70;99.90;;;;;;5036721;28;20527;-67
2022/03/02 06:41:28;;;;;;;27.00;16.47;;;0.80;99.90;;;;;;5053312;28;20231;-67
2022/03/02 06:44:28;;;;;;;30.47;20.50;;;1.00;99.90;;;;;;5052951;28;20210;-67
2022/03/02 06:47:06;;;;;;;25.73;16.17;;;1.20;99.90;;;;;;4997543;28;20440;-67
2022/03/02 06:49:47;;;;;;;32.73;19.00;;;1.40;99.90;;;;;;5052411;28;21016;-67
2022/03/02 06:52:17;;;;;;;31.03;17.63;;;1.50;99.90;;;;;;5044813;28;20439;-67
2022/03/02 06:54:46;;;;;;;26.73;17.47;;;1.70;99.90;;;;;;5053012;28;20850;-66
2022/03/02 06:57:15;;;;;;;33.43;20.30;;;1.80;99.90;;;;;;5052560;28;20521;-67
2022/03/02 06:59:43;;;;;;;30.90;21.00;;;1.90;99.90;;;;;;5052993;28;20435;-67
2022/03/02 07:02:11;;;;;;;28.77;19.87;;;1.90;99.90;;;;;;5053243;28;20420;-67
2022/03/02 07:04:42;;;;;;;27.40;18.90;;;2.00;99.90;;;;;;5052845;28;20475;-67
2022/03/02 07:07:08;;;;;;;23.20;15.80;;;2.00;99.90;;;;;;5050645;28;20435;-67
2022/03/02 07:09:34;;;;;;;30.33;15.03;;;2.10;99.90;;;;;;5052099;28;20427;-67
2022/03/02 07:12:02;;;;;;;28.47;17.63;;;2.20;99.90;;;;;;5052935;28;20947;-67
2022/03/02 07:14:32;;;;;;;22.53;16.83;;;2.30;99.90;;;;;;5046384;28;20968;-67
2022/03/02 07:17:00;;;;;;;19.47;14.57;;;2.40;99.90;;;;;;5053025;28;20424;-67
2022/03/02 07:19:26;;;;;;;19.90;15.23;;;2.40;99.90;;;;;;5052849;28;20833;-66
2022/03/02 07:21:52;;;;;;;20.60;16.00;;;2.50;99.90;;;;;;5046868;28;20887;-67
2022/03/02 07:24:19;;;;;;;22.90;16.67;;;2.60;99.90;;;;;;5051939;28;20463;-67
2022/03/02 07:26:50;;;;;;;27.70;17.53;;;2.60;99.90;;;;;;5052129;28;20432;-67
2022/03/02 07:29:15;;;;;;;30.23;18.07;;;2.60;99.90;;;;;;5052186;28;20515;-67
2022/03/02 07:31:43;;;;;;;29.47;17.03;;;2.60;99.90;;;;;;5048673;28;20543;-67
2022/03/02 07:34:13;;;;;;;21.10;15.30;;;2.60;99.90;;;;;;5052125;28;20495;-67
2022/03/02 07:36:40;;;;;;;26.43;16.07;;;2.40;99.90;;;;;;5051850;28;20519;-67
2022/03/02 07:39:07;;;;;;;18.63;14.37;;;2.40;99.90;;;;;;5052464;28;20766;-67
2022/03/02 07:41:34;;;;;;;22.90;15.70;;;2.50;99.90;;;;;;5051326;28;20432;-67
2022/03/02 07:43:59;;;;;;;26.37;18.00;;;2.60;99.90;;;;;;5052053;28;20458;-67
2022/03/02 07:46:28;;;;;;;19.80;14.63;;;2.60;99.90;;;;;;5051911;28;20463;-67
2022/03/02 07:48:54;;;;;;;20.90;15.87;;;2.90;99.90;;;;;;5051983;28;20178;-67
2022/03/02 07:51:21;;;;;;;23.10;15.53;;;3.00;99.90;;;;;;5051996;28;20439;-67
2022/03/02 07:53:49;;;;;;;22.93;16.27;;;3.10;99.90;;;;;;5051989;28;20690;-67
2022/03/02 07:56:16;;;;;;;21.03;15.13;;;3.30;99.90;;;;;;5051476;28;20503;-67
2022/03/02 07:58:42;;;;;;;19.37;15.40;;;3.40;99.90;;;;;;5051581;28;20435;-67
2022/03/02 08:01:12;;;;;;;19.93;14.20;;;3.60;99.90;;;;;;5051694;28;20424;-67
2022/03/02 08:03:39;;;;;;;22.37;15.27;;;3.70;99.90;;;;;;5047410;28;20427;-67
2022/03/02 08:06:06;;;;;;;22.57;14.90;;;3.80;99.90;;;;;;5050767;28;20435;-67
2022/03/02 08:08:32;;;;;;;22.90;15.63;;;4.00;99.90;;;;;;5051249;28;20428;-67
2022/03/02 08:10:57;;;;;;;21.63;16.47;;;4.20;99.90;;;;;;5051488;28;20465;-67
2022/03/02 08:13:24;;;;;;;20.57;15.30;;;4.40;99.90;;;;;;5044717;28;20185;-67
2022/03/02 08:15:51;;;;;;;22.07;15.93;;;4.60;99.90;;;;;;5041736;28;20233;-68
2022/03/02 08:18:17;;;;;;;20.87;14.93;;;4.70;99.90;;;;;;5022957;28;20635;-67
2022/03/02 08:20:54;;;;;;;21.83;14.10;;;4.80;99.90;;;;;;5044548;28;20415;-67
2022/03/02 08:23:23;;;;;;;18.40;15.00;;;5.00;99.50;;;;;;5051388;28;20431;-67
2022/03/02 08:25:52;;;;;;;20.60;15.53;;;5.00;98.90;;;;;;5046969;28;20958;-67
2022/03/02 08:28:19;;;;;;;21.70;16.20;;;5.40;98.60;;;;;;5041223;28;20440;-67
2022/03/02 08:30:52;;;;;;;20.27;16.90;;;5.30;97.70;;;;;;5051213;28;20937;-67
2022/03/02 08:33:27;;;;;;;28.07;18.90;;;5.30;98.00;;;;;;5050223;28;21952;-67
2022/03/02 08:35:53;;;;;;;24.70;17.43;;;5.10;98.00;;;;;;5047841;28;20454;-68
2022/03/02 08:38:19;;;;;;;23.20;17.20;;;5.00;98.10;;;;;;5050895;28;20432;-67
2022/03/02 08:40:45;;;;;;;24.83;16.50;;;5.00;98.50;;;;;;5051231;28;21002;-68
2022/03/02 08:43:13;;;;;;;22.70;16.77;;;4.70;98.90;;;;;;5050304;28;20202;-68
2022/03/02 08:45:38;;;;;;;21.40;15.43;;;4.50;99.00;;;;;;5034711;28;20464;-67
2022/03/02 08:48:05;;;;;;;21.83;15.80;;;5.00;99.90;;;;;;5049172;28;20794;-67
2022/03/02 08:50:31;;;;;;;24.87;15.57;;;5.40;98.90;;;;;;5050737;28;20184;-67
2022/03/02 08:52:57;;;;;;;24.90;17.33;;;5.80;98.10;;;;;;5050827;28;20828;-68
2022/03/02 08:55:28;;;;;;;25.50;16.03;;;6.00;97.30;;;;;;5050480;28;20554;-67
2022/03/02 08:57:55;;;;;;;20.90;15.00;;;5.90;96.20;;;;;;5047709;28;20423;-67
2022/03/02 09:00:20;;;;;;;21.10;17.70;;;6.10;96.40;;;;;;5050731;28;20998;-67
2022/03/02 09:02:47;;;;;;;22.50;17.20;;;6.20;95.70;;;;;;5050213;28;20523;-67
2022/03/02 09:05:13;;;;;;;20.43;16.47;;;6.20;95.80;;;;;;5050463;28;20281;-67
2022/03/02 09:07:39;;;;;;;17.50;15.60;;;6.10;95.90;;;;;;5043721;28;20631;-67
2022/03/02 09:10:06;;;;;;;21.67;17.57;;;5.70;96.50;;;;;;5051159;28;20432;-67
2022/03/02 09:12:31;;;;;;;21.73;15.87;;;5.30;97.70;;;;;;5051220;28;20193;-67
2022/03/02 09:14:58;;;;;;;27.17;18.43;;;5.40;98.20;;;;;;5050795;28;20462;-66
2022/03/02 09:17:28;;;;;;;26.33;17.10;;;5.30;98.10;;;;;;5047307;28;20615;-67
2022/03/02 09:19:54;;;;;;;27.53;17.47;;;5.50;98.60;;;;;;5050935;28;20424;-67
2022/03/02 09:22:27;;;;;;;30.13;19.03;;;5.70;98.00;;;;;;5050764;28;20439;-67
2022/03/02 09:24:53;;;;;;;21.00;17.73;;;6.10;97.50;;;;;;5050938;28;20502;-67
2022/03/02 09:27:20;;;;;;;25.70;17.60;;;6.80;96.20;;;;;;5046742;28;20434;-67
2022/03/02 09:29:47;;;;;;;19.00;16.93;;;7.60;94.60;;;;;;5051722;28;20493;-67
2022/03/02 09:32:14;;;;;;;26.37;17.00;;;8.20;92.60;;;;;;5053030;28;20502;-67
2022/03/02 09:34:45;;;;;;;24.40;16.90;;;8.60;91.30;;;;;;5054161;28;20547;-67
2022/03/02 09:37:12;;;;;;;22.93;17.40;;;8.70;91.10;;;;;;5051184;28;20440;-67
2022/03/02 09:39:37;;;;;;;22.73;16.17;;;8.70;88.70;;;;;;5054475;28;20507;-66
2022/03/02 09:42:05;;;;;;;25.20;17.97;;;8.50;87.90;;;;;;5054466;28;20981;-67
2022/03/02 09:44:51;;;;;;;25.27;15.30;;;8.60;89.50;;;;;;5054061;28;20197;-66
2022/03/02 09:47:21;;;;;;;23.70;16.00;;;8.20;85.60;;;;;;5050672;28;20427;-67
2022/03/02 09:49:57;;;;;;;22.73;18.00;;;8.30;87.80;;;;;;5045937;28;20447;-67
2022/03/02 09:52:24;;;;;;;24.93;16.37;;;8.60;86.70;;;;;;5050506;28;20472;-67
2022/03/02 09:54:55;;;;;;;18.50;15.13;;;8.80;84.10;;;;;;5050860;28;20462;-67
2022/03/02 09:57:22;;;;;;;16.43;14.73;;;9.20;82.10;;;;;;5046968;28;21099;-66
2022/03/02 09:59:56;;;;;;;17.67;14.57;;;9.60;77.20;;;;;;5051151;28;20521;-67
2022/03/02 10:02:37;;;;;;;17.13;13.90;;;9.80;75.70;;;;;;5050782;28;20443;-66
2022/03/02 10:05:08;;;;;;;14.77;13.37;;;9.90;74.80;;;;;;5050172;28;20566;-66
2022/03/02 10:07:37;;;;;;;17.07;13.13;;;9.90;72.10;;;;;;5042607;28;20840;-67
2022/03/02 10:10:13;;;;;;;25.93;17.20;;;10.10;69.50;;;;;;5050852;28;20526;-67
2022/03/02 10:12:39;;;;;;;21.97;16.73;;;9.90;71.80;;;;;;5050764;28;20564;-67
2022/03/02 10:15:12;;;;;;;24.60;17.60;;;10.20;74.30;;;;;;5050492;28;20453;-67
2022/03/02 10:17:40;;;;;;;18.00;16.30;;;10.70;73.20;;;;;;5047057;28;20467;-67
2022/03/02 10:20:07;;;;;;;19.10;15.43;;;11.30;70.30;;;;;;5050193;28;20428;-67
2022/03/02 10:23:14;;;;;;;18.17;16.10;;;10.80;69.50;;;;;;5050416;28;20788;-67
2022/03/02 10:25:45;;;;;;;19.77;16.47;;;11.40;68.60;;;;;;5048804;28;20451;-67
2022/03/02 10:28:23;;;;;;;19.83;16.97;;;12.50;65.40;;;;;;5049471;28;20436;-67
2022/03/02 10:31:07;;;;;;;19.70;16.20;;;13.20;62.20;;;;;;5050421;28;20530;-67
2022/03/02 10:33:42;;;;;;;18.43;14.43;;;13.10;59.60;;;;;;5041416;28;20473;-67
2022/03/02 10:36:10;;;;;;;29.43;16.27;;;12.10;60.00;;;;;;5046576;28;20508;-67
2022/03/02 10:38:57;;;;;;;16.83;13.37;;;11.70;61.10;;;;;;5049866;28;20440;-67
2022/03/02 10:41:23;;;;;;;16.37;14.67;;;12.00;59.60;;;;;;5049589;28;20538;-66
2022/03/02 10:44:04;;;;;;;19.37;17.57;;;11.80;59.50;;;;;;5049615;28;20486;-66
2022/03/02 10:46:30;;;;;;;16.33;14.53;;;11.60;60.20;;;;;;5045024;28;20988;-67
2022/03/02 10:49:06;;;;;;;18.20;16.27;;;11.60;60.00;;;;;;5049325;28;20432;-67
2022/03/02 10:51:34;;;;;;;25.27;16.20;;;11.60;59.70;;;;;;5049700;28;20438;-67
2022/03/02 10:54:02;;;;;;;18.00;14.80;;;11.60;59.90;;;;;;5048883;28;21052;-67
2022/03/02 10:56:30;;;;;;;17.53;14.60;;;11.10;60.80;;;;;;5046174;28;20443;-67
2022/03/02 10:58:59;;;;;;;17.70;14.93;;;10.90;61.70;;;;;;5050191;28;20438;-66
2022/03/02 11:01:25;;;;;;;19.63;16.13;;;10.80;62.00;;;;;;5051782;28;20427;-66
2022/03/02 11:03:51;;;;;;;18.20;16.37;;;10.70;62.10;;;;;;5052568;28;20608;-67
2022/03/02 11:06:20;;;;;;;18.80;15.73;;;10.40;62.30;;;;;;5049357;28;20181;-66
2022/03/02 11:08:48;;;;;;;21.70;16.40;;;10.00;63.40;;;;;;5052598;28;20427;-66
2022/03/02 11:11:14;;;;;;;19.30;15.17;;;9.70;64.20;;;;;;5052628;28;20442;-67
2022/03/02 11:13:40;;;;;;;25.33;16.57;;;9.00;65.40;;;;;;5052521;28;20459;-67
2022/03/02 11:16:06;;;;;;;24.50;17.13;;;8.70;66.60;;;;;;5049812;28;20683;-68
2022/03/02 11:18:36;;;;;;;18.03;14.63;;;8.70;66.10;;;;;;5052153;28;20436;-66
2022/03/02 11:21:05;;;;;;;22.67;15.30;;;9.10;65.80;;;;;;5051748;28;20977;-65
2022/03/02 11:23:42;;;;;;;18.93;15.90;;;9.40;64.30;;;;;;5051750;28;20440;-65
2022/03/02 11:26:16;;;;;;;16.20;14.47;;;9.90;64.00;;;;;;5044232;28;20451;-65
2022/03/02 11:28:49;;;;;;;16.57;14.47;;;10.50;63.30;;;;;;5052191;28;20440;-66
2022/03/02 11:31:42;;;;;;;15.77;13.60;;;11.10;60.40;;;;;;5046499;28;20485;-64
2022/03/02 11:34:20;;;;;;;15.43;13.93;;;12.00;62.70;;;;;;5027991;28;20513;-67
2022/03/02 11:36:50;;;;;;;18.90;14.83;;;12.70;57.80;;;;;;5046138;28;20435;-67
2022/03/02 11:39:18;;;;;;;17.33;15.53;;;13.70;55.90;;;;;;5052206;28;20933;-67
2022/03/02 11:41:46;;;;;;;17.20;15.40;;;14.30;54.50;;;;;;5047108;28;20483;-67
2022/03/02 11:44:30;;;;;;;17.17;15.17;;;14.00;52.80;;;;;;5052002;28;20447;-68
2022/03/02 11:46:57;;;;;;;15.97;14.37;;;13.50;53.50;;;;;;5048499;28;20568;-68
2022/03/02 11:49:46;;;;;;;16.00;14.03;;;13.10;53.80;;;;;;5049961;28;20485;-69
2022/03/02 11:52:18;;;;;;;15.80;14.27;;;12.50;53.80;;;;;;5051449;28;20431;-67
2022/03/02 11:54:48;;;;;;;16.87;14.53;;;11.90;54.30;;;;;;5051706;28;20541;-67
2022/03/02 11:57:18;;;;;;;16.40;14.80;;;11.60;54.80;;;;;;5048977;28;20530;-67
2022/03/02 11:59:45;;;;;;;16.10;14.40;;;11.80;54.70;;;;;;5048977;28;20436;-66
2022/03/02 12:02:13;;;;;;;15.83;14.33;;;12.20;55.00;;;;;;5047740;28;20471;-66
2022/03/02 12:04:39;;;;;;;16.80;15.03;;;12.90;53.40;;;;;;5047701;28;20471;-67
2022/03/02 12:07:05;;;;;;;19.97;16.20;;;13.60;52.80;;;;;;5044494;28;22053;-66
2022/03/02 12:09:34;;;;;;;19.10;17.03;;;13.90;52.30;;;;;;5051607;28;20443;-66
2022/03/02 12:12:11;;;;;;;21.37;15.10;;;13.80;52.90;;;;;;5049199;28;20942;-66
2022/03/02 12:14:44;;;;;;;17.63;13.57;;;13.40;51.40;;;;;;5044044;28;20516;-67
2022/03/02 12:17:30;;;;;;;17.73;14.57;;;13.00;50.40;;;;;;5040236;28;20439;-67
2022/03/02 12:20:00;;;;;;;19.50;15.87;;;13.20;51.00;;;;;;5048378;28;20527;-66
2022/03/02 12:22:34;;;;;;;17.93;15.70;;;13.30;51.90;;;;;;5048475;28;20431;-66
2022/03/02 12:25:00;;;;;;;18.90;16.10;;;13.60;51.50;;;;;;5047381;28;20440;-66
2022/03/02 12:27:27;;;;;;;20.60;15.77;;;13.40;51.30;;;;;;5044557;28;20439;-66
2022/03/02 12:29:59;;;;;;;21.10;17.20;;;13.50;51.60;;;;;;5047845;28;20432;-66
2022/03/02 12:32:28;;;;;;;18.93;16.93;;;13.60;51.60;;;;;;5047859;28;20439;-66
2022/03/02 12:34:55;;;;;;;19.10;17.10;;;14.00;51.10;;;;;;5047091;28;20472;-66
2022/03/02 12:37:21;;;;;;;16.53;14.90;;;14.40;50.20;;;;;;5044816;28;20871;-66
2022/03/02 12:39:49;;;;;;;18.93;17.13;;;13.80;49.70;;;;;;5048046;28;20432;-66